Time;durP1;ratioP1;P1;durP2;ratioP2;P2;SDS_P1;SDS_P2;PMS_P1;PMS_P2;Temp;Humidity;BMP_temperature;BMP_pressure;BME280_temperature;BME280_humidity;BME280_pressure;Samples;Min_cycle;Max_cycle;Signal;HPM_P1;HPM_P2
2021/07/01 00:00:51;;;;;;;3.22;2.83;;;;;;;18.02;99.59;100173.86;1737803;81;21006;-49
2021/07/01 00:03:18;;;;;;;3.25;2.12;;;;;;;18.00;99.62;100170.07;1764736;81;21613;-50
2021/07/01 00:05:44;;;;;;;3.65;3.22;;;;;;;17.99;99.71;100160.14;1753277;81;21027;-50
2021/07/01 00:08:11;;;;;;;3.92;2.67;;;;;;;18.00;99.73;100152.10;1734410;82;20976;-43
2021/07/01 00:10:38;;;;;;;4.35;3.10;;;;;;;18.00;99.77;100145.19;1721754;83;21017;-50
2021/07/01 00:13:05;;;;;;;3.92;3.08;;;;;;;17.99;99.78;100136.64;1724110;82;21506;-43
2021/07/01 00:15:34;;;;;;;4.67;2.52;;;;;;;17.98;99.71;100122.59;1738387;82;20998;-43
2021/07/01 00:18:00;;;;;;;3.17;2.10;;;;;;;17.94;99.57;100120.27;1739607;81;21056;-50
2021/07/01 00:20:27;;;;;;;3.33;2.33;;;;;;;17.91;99.49;100122.32;1756238;81;21141;-50
2021/07/01 00:22:54;;;;;;;6.35;2.90;;;;;;;17.86;99.44;100119.77;1756201;81;21008;-48
2021/07/01 00:25:20;;;;;;;4.90;2.75;;;;;;;17.82;99.51;100119.61;1728276;81;21031;-43
2021/07/01 00:27:46;;;;;;;5.35;3.35;;;;;;;17.78;99.72;100117.84;1728874;81;21036;-50
2021/07/01 00:30:15;;;;;;;5.70;3.42;;;;;;;17.75;99.96;100122.64;1726156;83;21106;-50
2021/07/01 00:32:41;;;;;;;3.58;2.65;;;;;;;17.75;100.00;100125.41;1719727;82;20999;-46
2021/07/01 00:35:10;;;;;;;4.47;2.95;;;;;;;17.76;100.00;100117.38;1740010;81;21476;-50
2021/07/01 00:37:36;;;;;;;3.85;2.83;;;;;;;17.76;100.00;100111.27;1736511;81;21035;-49
2021/07/01 00:40:05;;;;;;;6.10;3.27;;;;;;;17.76;100.00;100109.08;1731301;82;21019;-45
2021/07/01 00:42:31;;;;;;;4.00;3.05;;;;;;;17.75;100.00;100111.59;1713251;83;21845;-49
2021/07/01 00:44:58;;;;;;;4.35;2.70;;;;;;;17.76;100.00;100114.61;1739366;81;21071;-43
2021/07/01 00:47:24;;;;;;;5.87;3.05;;;;;;;17.76;100.00;100117.38;1740405;81;21062;-50
2021/07/01 00:49:51;;;;;;;4.45;2.90;;;;;;;17.76;100.00;100148.57;1756670;81;21015;-44
2021/07/01 00:52:18;;;;;;;7.10;3.92;;;;;;;17.78;100.00;100184.17;1756266;81;21016;-49
2021/07/01 00:54:46;;;;;;;5.10;3.47;;;;;;;17.82;100.00;100171.31;1756674;81;21610;-50
2021/07/01 00:57:13;;;;;;;4.65;2.85;;;;;;;17.93;100.00;100150.44;1732726;81;21003;-43
2021/07/01 00:59:41;;;;;;;3.70;2.70;;;;;;;18.05;100.00;100170.42;1754683;81;21462;-44
2021/07/01 01:02:07;;;;;;;5.37;3.02;;;;;;;18.16;100.00;100188.81;1716354;81;21010;-50
2021/07/01 01:04:34;;;;;;;5.30;3.40;;;;;;;18.28;100.00;100200.53;1756860;81;21011;-49
2021/07/01 01:07:04;;;;;;;8.10;3.70;;;;;;;18.42;100.00;100200.49;1757163;81;21098;-49
2021/07/01 01:09:31;;;;;;;6.20;4.00;;;;;;;18.55;100.00;100187.52;1745871;81;21066;-43
2021/07/01 01:11:58;;;;;;;6.87;4.20;;;;;;;18.67;100.00;100198.64;1726713;83;20983;-49
2021/07/01 01:14:25;;;;;;;5.50;3.42;;;;;;;18.80;100.00;100221.66;1726369;83;21007;-43
2021/07/01 01:17:02;;;;;;;7.53;4.08;;;;;;;18.88;100.00;100217.19;1725917;81;21545;-44
2021/07/01 01:19:29;;;;;;;8.10;4.17;;;;;;;18.98;100.00;100208.45;1727337;82;21041;-48
2021/07/01 01:21:55;;;;;;;6.97;4.47;;;;;;;19.11;100.00;100223.13;1699384;84;21051;-44
2021/07/01 01:24:23;;;;;;;5.92;3.15;;;;;;;19.35;100.00;100227.92;1703320;84;21042;-43
2021/07/01 01:26:50;;;;;;;7.50;3.45;;;;;;;19.57;100.00;100234.19;1724095;83;21052;-49
2021/07/01 01:29:21;;;;;;;7.87;3.25;;;;;;;19.92;100.00;100221.50;1729432;81;21049;-44
2021/07/01 01:31:48;;;;;;;4.53;2.98;;;;;;;19.92;100.00;100221.50;1729454;82;26912;-49
2021/07/01 01:34:16;;;;;;;7.10;4.12;;;;;;;20.07;99.48;100209.47;1734961;81;21384;-49
2021/07/01 01:36:42;;;;;;;5.05;3.60;;;;;;;20.09;100.00;100224.60;1729554;81;20993;-55
2021/07/01 01:39:10;;;;;;;8.13;3.60;;;;;;;20.09;100.00;100224.60;1729374;83;21085;-60
2021/07/01 01:45:53;;;;;;;6.65;2.45;;;;;;;19.78;100.00;100213.30;1723153;82;21478;-61
2021/07/01 01:48:21;;;;;;;5.72;3.55;;;;;;;19.38;100.00;100191.79;1726122;81;21652;-61
2021/07/01 01:50:49;;;;;;;6.83;2.58;;;;;;;19.28;100.00;100173.08;1729202;82;21424;-61
2021/07/01 01:53:15;;;;;;;3.65;2.58;;;;;;;19.26;100.00;100140.78;1729384;83;21037;-61
2021/07/01 01:59:42;;;;;;;5.55;3.10;;;;;;;19.25;100.00;100136.38;1703601;84;21006;-54
2021/07/01 02:02:26;;;;;;;5.92;3.77;;;;;;;19.17;100.00;100140.07;1729226;83;20936;-60
2021/07/01 02:05:11;;;;;;;4.62;2.22;;;;;;;19.12;100.00;100159.10;1703201;82;20951;-59
2021/07/01 02:07:40;;;;;;;6.10;3.70;;;;;;;19.09;100.00;100164.53;1724148;81;20985;-58
2021/07/01 02:10:11;;;;;;;4.30;2.77;;;;;;;19.08;100.00;100169.23;1728894;83;21034;-57
2021/07/01 02:12:38;;;;;;;3.83;3.27;;;;;;;19.10;100.00;100168.91;1726136;83;21013;-53
2021/07/01 02:15:09;;;;;;;9.03;3.42;;;;;;;19.11;100.00;100169.96;1703515;84;21006;-53
2021/07/01 02:30:48;;;;;;;9.68;4.30;;;;;;;19.23;100.00;100123.45;1763092;79;21452;-54
2021/07/01 02:33:15;;;;;;;13.32;4.12;;;;;;;19.21;100.00;100125.75;1751982;81;20958;-55
2021/07/01 02:35:42;;;;;;;10.23;3.80;;;;;;;19.22;100.00;100119.66;1745797;82;20974;-53
2021/07/01 02:38:27;;;;;;;8.28;3.45;;;;;;;19.22;100.00;100124.61;1764571;80;20962;-52
2021/07/01 02:40:55;;;;;;;9.85;4.37;;;;;;;19.25;100.00;100133.61;1739565;81;21484;-57
2021/07/01 02:43:23;;;;;;;8.78;4.50;;;;;;;19.28;100.00;100119.64;1744856;81;21408;-58
2021/07/01 02:46:08;;;;;;;9.33;3.90;;;;;;;19.28;100.00;100098.28;1747926;80;21365;-58
2021/07/01 02:48:35;;;;;;;10.78;4.08;;;;;;;19.28;100.00;100076.12;1773900;80;20867;-57
2021/07/01 02:51:02;;;;;;;7.85;4.37;;;;;;;19.18;100.00;100058.59;1750496;80;21524;-57
2021/07/01 02:53:30;;;;;;;16.62;4.92;;;;;;;19.17;100.00;100058.38;1725452;82;21005;-53
2021/07/01 02:55:56;;;;;;;10.05;4.22;;;;;;;19.17;100.00;100050.06;1709075;83;21507;-53
2021/07/01 02:58:24;;;;;;;13.43;4.17;;;;;;;19.17;100.00;100050.06;1711632;82;21536;-55
2021/07/01 03:01:08;;;;;;;14.63;5.05;;;;;;;19.18;100.00;100040.59;1699059;83;21512;-52
2021/07/01 03:03:35;;;;;;;9.45;3.67;;;;;;;19.18;100.00;100037.82;1698828;84;21006;-55
2021/07/01 03:06:05;;;;;;;10.25;4.12;;;;;;;19.19;100.00;100024.22;1698628;83;21530;-55
2021/07/01 03:08:33;;;;;;;11.78;4.60;;;;;;;19.22;100.00;100029.05;1710132;83;21054;-51
2021/07/01 03:11:01;;;;;;;7.62;3.58;;;;;;;19.25;100.00;100015.09;1702556;83;21062;-55
2021/07/01 03:13:30;;;;;;;11.48;4.50;;;;;;;19.30;100.00;100025.92;1674293;83;21046;-52
2021/07/01 03:15:56;;;;;;;17.73;5.15;;;;;;;19.34;100.00;100027.66;1689126;83;21014;-55
2021/07/01 03:18:24;;;;;;;12.13;4.37;;;;;;;19.38;100.00;100036.64;1699401;83;21374;-55
2021/07/01 03:20:52;;;;;;;9.58;3.87;;;;;;;19.44;100.00;100020.03;1695888;84;21460;-55
2021/07/01 03:23:23;;;;;;;9.95;4.20;;;;;;;19.53;100.00;100026.22;1756666;81;20993;-52
2021/07/01 03:25:52;;;;;;;10.23;3.98;;;;;;;19.53;100.00;100026.22;1759180;81;20993;-55
2021/07/01 03:28:19;;;;;;;12.55;4.53;;;;;;;19.66;100.00;100027.82;1758341;81;21039;-55
2021/07/01 03:30:45;;;;;;;12.53;4.80;;;;;;;19.66;100.00;100027.82;1754059;81;21389;-54
2021/07/01 03:33:11;;;;;;;13.08;5.47;;;;;;;19.67;100.00;100030.84;1750631;80;21581;-51
2021/07/01 03:35:38;;;;;;;9.75;4.90;;;;;;;19.69;100.00;100028.53;1723719;81;21020;-54
2021/07/01 03:38:23;;;;;;;19.10;5.75;;;;;;;19.70;100.00;100024.59;1713716;83;21058;-54
2021/07/01 03:40:57;;;;;;;19.10;6.37;;;;;;;19.71;100.00;100021.26;1734734;82;21578;-49
2021/07/01 03:43:23;;;;;;;15.63;5.35;;;;;;;19.71;100.00;100031.76;1740707;82;21085;-54
2021/07/01 03:45:52;;;;;;;15.30;4.60;;;;;;;19.68;100.00;100033.86;1740214;82;21547;-53
2021/07/01 03:48:22;;;;;;;12.43;5.00;;;;;;;19.66;100.00;100027.02;1740986;82;20998;-50
2021/07/01 03:50:50;;;;;;;16.35;6.33;;;;;;;19.70;100.00;100030.13;1715127;82;21412;-48
2021/07/01 03:53:18;;;;;;;13.88;4.47;;;;;;;19.70;100.00;100030.13;1717536;83;21447;-48
2021/07/01 03:55:45;;;;;;;13.95;5.12;;;;;;;19.74;100.00;100032.44;1712966;82;21054;-49
2021/07/01 03:58:11;;;;;;;18.27;6.05;;;;;;;19.79;100.00;100046.63;1719491;82;21033;-48
2021/07/01 04:00:38;;;;;;;14.38;5.62;;;;;;;19.81;100.00;100045.70;1716605;83;21388;-50
2021/07/01 04:03:06;;;;;;;22.87;6.53;;;;;;;19.84;100.00;100045.00;1663323;84;21047;-54
2021/07/01 04:05:34;;;;;;;17.55;5.83;;;;;;;19.86;100.00;100048.81;1693216;83;21049;-49
2021/07/01 04:08:01;;;;;;;14.03;5.12;;;;;;;19.87;100.00;100055.96;1779215;80;21410;-48
2021/07/01 04:10:46;;;;;;;18.10;5.90;;;;;;;19.88;100.00;100052.02;1698995;84;21003;-54
2021/07/01 04:13:14;;;;;;;12.33;5.72;;;;;;;19.93;100.00;100059.53;1739321;81;21055;-53
2021/07/01 04:15:43;;;;;;;10.95;5.25;;;;;;;19.96;100.00;100049.70;1760340;80;21018;-53
2021/07/01 04:18:30;;;;;;;15.80;6.35;;;;;;;20.03;100.00;100047.69;1719448;82;21018;-49
2021/07/01 04:21:15;;;;;;;14.65;5.78;;;;;;;20.08;100.00;100046.87;1736197;82;21014;-47
2021/07/01 04:23:58;;;;;;;15.40;6.15;;;;;;;20.15;100.00;100035.98;1683857;83;21424;-53
2021/07/01 04:26:30;;;;;;;15.78;7.28;;;;;;;20.23;100.00;100038.93;1685653;83;21029;-52
2021/07/01 04:28:57;;;;;;;18.27;7.75;;;;;;;20.31;100.00;100037.98;1704806;83;21009;-46
2021/07/01 04:31:25;;;;;;;17.00;6.85;;;;;;;20.38;100.00;100043.73;1730899;80;21042;-52
2021/07/01 04:34:00;;;;;;;24.52;7.75;;;;;;;20.45;100.00;100046.70;1734331;81;21013;-46
2021/07/01 04:36:27;;;;;;;19.73;7.37;;;;;;;20.54;100.00;100046.52;1738718;81;21029;-46
2021/07/01 04:38:54;;;;;;;22.37;7.47;;;;;;;20.59;100.00;100045.69;1721747;81;21029;-51
2021/07/01 04:41:22;;;;;;;26.97;8.58;;;;;;;20.67;100.00;100047.27;1736338;80;21041;-51
2021/07/01 04:43:50;;;;;;;30.02;9.78;;;;;;;20.71;100.00;100052.34;1734933;82;20906;-50
2021/07/01 04:46:17;;;;;;;18.75;8.05;;;;;;;20.77;100.00;100055.06;1725457;81;21275;-47
2021/07/01 04:48:46;;;;;;;21.55;9.05;;;;;;;20.81;100.00;100065.09;1757153;81;20999;-50
2021/07/01 04:51:12;;;;;;;22.42;8.80;;;;;;;20.87;100.00;100063.44;1734724;81;21401;-50
2021/07/01 04:53:58;;;;;;;23.27;7.80;;;;;;;20.92;100.00;100068.72;1740953;81;21498;-45
2021/07/01 04:56:46;;;;;;;28.92;10.40;;;;;;;21.02;100.00;100072.38;1673172;85;21083;-50
2021/07/01 04:59:16;;;;;;;25.37;10.20;;;;;;;21.13;100.00;100083.14;1686674;83;21038;-46
2021/07/01 05:02:01;;;;;;;28.92;10.55;;;;;;;21.24;100.00;100084.78;1697878;83;21006;-44
2021/07/01 05:04:33;;;;;;;25.00;9.63;;;;;;;21.34;100.00;100080.09;1726009;83;21411;-50
2021/07/01 05:07:00;;;;;;;25.55;10.30;;;;;;;21.42;100.00;100090.81;1712196;83;21007;-50
2021/07/01 05:09:28;;;;;;;33.23;12.07;;;;;;;21.49;100.00;100088.20;1675348;84;21109;-44
2021/07/01 05:11:58;;;;;;;25.57;9.48;;;;;;;21.55;100.00;100097.06;1684753;84;21035;-50
2021/07/01 05:14:25;;;;;;;26.45;9.05;;;;;;;21.60;100.00;100102.34;1670068;84;21452;-50
2021/07/01 05:16:53;;;;;;;26.65;10.15;;;;;;;21.63;100.00;100114.13;1691876;84;21046;-50
2021/07/01 05:19:20;;;;;;;32.70;12.25;;;;;;;21.67;100.00;100128.92;1704859;84;21053;-46
2021/07/01 05:21:57;;;;;;;32.55;12.98;;;;;;;21.67;100.00;100140.84;1705817;82;20998;-50
2021/07/01 05:24:42;;;;;;;32.75;14.40;;;;;;;21.63;100.00;100161.38;1695167;84;21085;-45
2021/07/01 05:27:27;;;;;;;37.48;14.68;;;;;;;21.56;100.00;100180.67;1688878;84;21022;-46
2021/07/01 05:30:13;;;;;;;33.15;14.75;;;;;;;21.50;100.00;100175.17;1684511;84;21063;-51
2021/07/01 05:32:58;;;;;;;40.30;17.95;;;;;;;21.44;100.00;100182.98;1678745;84;21003;-45
2021/07/01 05:35:26;;;;;;;37.35;17.02;;;;;;;21.36;100.00;100168.05;1667716;84;20988;-50
2021/07/01 05:37:54;;;;;;;41.68;18.77;;;;;;;21.34;100.00;100173.74;1667929;86;21019;-45
2021/07/01 05:40:24;;;;;;;40.70;18.23;;;;;;;21.32;100.00;100172.73;1701305;83;21919;-50
2021/07/01 05:42:51;;;;;;;43.98;18.12;;;;;;;21.34;100.00;100184.30;1709323;83;21011;-50
2021/07/01 05:45:18;;;;;;;38.90;18.80;;;;;;;21.37;100.00;100197.47;1667499;84;20903;-50
2021/07/01 05:47:44;;;;;;;37.55;16.52;;;;;;;21.37;100.00;100206.40;1734097;82;20867;-50
2021/07/01 05:50:11;;;;;;;34.33;15.08;;;;;;;21.37;100.00;100199.45;1736635;82;20966;-50
2021/07/01 05:52:42;;;;;;;37.55;15.65;;;;;;;21.38;100.00;100203.24;1730108;82;21610;-51
2021/07/01 05:55:09;;;;;;;37.10;15.95;;;;;;;21.42;100.00;100206.16;1728413;83;21702;-51
2021/07/01 05:57:36;;;;;;;35.10;14.65;;;;;;;21.48;100.00;100208.29;1728251;83;21078;-45
2021/07/01 06:00:06;;;;;;;33.58;13.93;;;;;;;21.57;100.00;100214.27;1728520;83;21046;-45
2021/07/01 06:02:33;;;;;;;33.53;17.43;;;;;;;21.65;100.00;100220.22;1701617;83;20995;-46
2021/07/01 06:05:00;;;;;;;35.45;15.53;;;;;;;21.74;100.00;100220.84;1729136;83;21066;-45
2021/07/01 06:07:50;;;;;;;32.17;15.30;;;;;;;21.81;100.00;100226.59;1728920;83;21424;-51
2021/07/01 06:10:17;;;;;;;32.93;14.93;;;;;;;21.90;100.00;100221.61;1729171;83;27473;-45
2021/07/01 06:12:44;;;;;;;27.52;14.58;;;;;;;21.97;100.00;100221.58;1728990;83;20999;-45
2021/07/01 06:15:12;;;;;;;30.55;15.13;;;;;;;22.03;100.00;100215.38;1709546;82;21050;-45
2021/07/01 06:17:42;;;;;;;36.23;15.15;;;;;;;22.10;100.00;100221.08;1684242;85;21504;-51
2021/07/01 06:20:11;;;;;;;35.70;15.43;;;;;;;22.18;100.00;100220.68;1711258;82;21210;-51
2021/07/01 06:22:37;;;;;;;31.45;15.03;;;;;;;22.22;100.00;100228.53;1699306;84;21034;-47
2021/07/01 06:25:05;;;;;;;27.48;14.73;;;;;;;22.27;100.00;100225.46;1658485;83;21024;-46
2021/07/01 06:30:09;;;;;;;32.20;14.00;;;;;;;22.38;100.00;100217.36;1728636;83;21058;-45
2021/07/01 06:32:43;;;;;;;24.32;12.10;;;;;;;22.49;100.00;100221.75;1726512;82;21006;-46
2021/07/01 06:35:04;;;;;;;24.65;13.43;;;;;;;22.61;100.00;100224.40;1680953;84;21018;-51
2021/07/01 06:37:32;;;;;;;24.95;13.13;;;;;;;22.74;100.00;100212.52;1682978;83;21448;-48
2021/07/01 06:40:17;;;;;;;25.57;12.75;;;;;;;22.83;100.00;100209.52;1682048;85;21181;-45
2021/07/01 06:43:02;;;;;;;24.07;12.40;;;;;;;22.90;100.00;100220.80;1682047;85;21046;-51
2021/07/01 06:45:43;;;;;;;25.08;12.63;;;;;;;22.96;100.00;100217.92;1648949;84;21038;-45
2021/07/01 06:48:27;;;;;;;22.35;10.48;;;;;;;23.00;100.00;100209.08;1681929;85;21098;-51
2021/07/01 06:51:12;;;;;;;18.37;9.60;;;;;;;23.08;100.00;100203.84;1681900;85;21034;-45
2021/07/01 06:53:57;;;;;;;17.27;10.18;;;;;;;23.14;100.00;100202.35;1683130;83;21006;-44
2021/07/01 06:56:39;;;;;;;15.43;7.60;;;;;;;23.23;100.00;100202.72;1681542;85;21397;-50
2021/07/01 06:59:01;;;;;;;18.15;8.85;;;;;;;23.27;100.00;100196.59;1689753;84;21080;-45
2021/07/01 07:01:27;;;;;;;13.43;7.45;;;;;;;23.33;100.00;100205.68;1704417;84;21040;-55
2021/07/01 07:03:54;;;;;;;13.85;7.70;;;;;;;23.40;100.00;100194.66;1696798;84;20990;-52
2021/07/01 07:06:21;;;;;;;11.18;6.83;;;;;;;23.51;100.00;100194.02;1681601;85;21552;-51
2021/07/01 07:08:47;;;;;;;10.45;6.70;;;;;;;23.59;100.00;100189.59;1681856;85;21650;-45
2021/07/01 07:11:13;;;;;;;12.93;6.55;;;;;;;23.73;100.00;100191.02;1689855;83;21449;-50
2021/07/01 07:13:40;;;;;;;11.40;6.97;;;;;;;23.88;100.00;100188.66;1703055;83;21481;-45
2021/07/01 07:16:07;;;;;;;11.63;6.45;;;;;;;23.87;100.00;100194.03;1701593;83;21001;-51
2021/07/01 07:18:36;;;;;;;10.32;5.92;;;;;;;23.88;100.00;100194.23;1658095;84;21028;-45
2021/07/01 07:21:18;;;;;;;12.60;6.47;;;;;;;24.03;100.00;100180.73;1708579;83;21026;-51
2021/07/01 07:23:54;;;;;;;9.95;5.62;;;;;;;24.19;100.00;100178.34;1679228;83;21010;-51
2021/07/01 07:26:23;;;;;;;7.83;4.87;;;;;;;24.38;100.00;100172.61;1678608;83;21099;-45
2021/07/01 07:28:52;;;;;;;8.15;6.17;;;;;;;24.54;100.00;100183.59;1702362;82;21009;-51
2021/07/01 07:31:28;;;;;;;7.20;4.97;;;;;;;24.68;100.00;100190.74;1681874;84;21677;-51
2021/07/01 07:33:53;;;;;;;5.62;4.85;;;;;;;24.88;100.00;100184.38;1681152;83;21445;-45
2021/07/01 07:36:21;;;;;;;8.30;5.28;;;;;;;25.15;100.00;100181.45;1681780;85;21010;-45
2021/07/01 07:38:50;;;;;;;6.42;4.65;;;;;;;25.33;100.00;100178.84;1681899;83;21007;-44
2021/07/01 07:41:17;;;;;;;8.20;5.35;;;;;;;25.53;99.48;100165.41;1693438;83;20973;-45
2021/07/01 07:43:44;;;;;;;7.42;5.47;;;;;;;25.71;99.47;100171.93;1703766;84;21028;-45
2021/07/01 07:46:10;;;;;;;8.38;4.70;;;;;;;25.89;97.58;100169.30;1707771;83;21057;-51
2021/07/01 07:48:38;;;;;;;6.92;4.90;;;;;;;26.07;98.02;100166.59;1710375;83;21446;-51
2021/07/01 07:51:04;;;;;;;6.90;4.78;;;;;;;26.28;96.40;100163.69;1717444;82;21408;-51
2021/07/01 07:53:33;;;;;;;7.62;4.45;;;;;;;26.44;94.37;100162.77;1711469;83;21014;-46
2021/07/01 07:56:08;;;;;;;7.92;4.85;;;;;;;26.45;92.54;100164.36;1711898;82;21053;-46
2021/07/01 07:58:39;;;;;;;5.80;4.45;;;;;;;26.44;91.56;100162.77;1717593;83;21389;-45
2021/07/01 08:01:09;;;;;;;7.80;4.53;;;;;;;26.40;89.40;100163.34;1717857;83;21520;-51
2021/07/01 08:03:38;;;;;;;4.95;4.12;;;;;;;26.30;89.74;100166.30;1680993;81;21013;-50
2021/07/01 08:06:07;;;;;;;6.53;4.37;;;;;;;26.25;88.83;100165.88;1682272;84;21050;-45
2021/07/01 08:08:37;;;;;;;6.62;4.28;;;;;;;26.24;88.28;100172.69;1681792;85;21436;-51
2021/07/01 08:11:06;;;;;;;5.30;4.03;;;;;;;26.32;88.33;100163.12;1681708;84;21022;-44
2021/07/01 08:13:33;;;;;;;6.92;4.17;;;;;;;26.45;87.81;100157.95;1687220;83;21018;-50
2021/07/01 08:15:59;;;;;;;5.25;4.35;;;;;;;26.66;87.51;100157.27;1710478;83;20911;-51
2021/07/01 08:18:42;;;;;;;6.78;4.35;;;;;;;26.85;86.44;100147.69;1712473;82;21022;-50
2021/07/01 08:21:08;;;;;;;6.15;4.67;;;;;;;26.96;85.34;100149.31;1693574;81;21026;-45
2021/07/01 08:23:34;;;;;;;5.92;4.55;;;;;;;26.99;83.83;100148.51;1710546;83;21026;-50
2021/07/01 08:26:02;;;;;;;6.47;4.67;;;;;;;27.03;83.41;100146.52;1710550;83;21014;-51
2021/07/01 08:28:28;;;;;;;8.13;4.97;;;;;;;27.16;84.89;100151.73;1710563;83;21022;-50
2021/07/01 08:30:58;;;;;;;7.37;4.70;;;;;;;27.37;86.10;100150.95;1710178;83;21173;-50
2021/07/01 08:33:29;;;;;;;6.30;4.58;;;;;;;27.53;83.08;100158.98;1708580;82;21485;-50
2021/07/01 08:35:55;;;;;;;5.50;4.20;;;;;;;27.65;82.58;100155.77;1689417;84;21030;-45
2021/07/01 08:38:21;;;;;;;6.20;4.67;;;;;;;27.73;82.14;100162.16;1674939;85;21053;-44
2021/07/01 08:40:48;;;;;;;5.20;3.92;;;;;;;27.83;82.10;100165.58;1655035;85;21023;-50
2021/07/01 08:43:18;;;;;;;9.03;4.78;;;;;;;27.96;82.24;100170.16;1678204;85;21028;-50
2021/07/01 08:46:03;;;;;;;6.12;4.42;;;;;;;28.13;81.58;100176.33;1678338;84;21062;-44
2021/07/01 08:48:44;;;;;;;10.48;5.00;;;;;;;28.27;80.59;100179.09;1736347;81;21016;-44
2021/07/01 08:51:11;;;;;;;7.30;4.72;;;;;;;28.48;79.19;100182.44;1734664;81;21001;-50
2021/07/01 08:54:12;;;;;;;7.47;4.33;;;;;;;28.49;76.62;100172.02;1696040;82;20983;-49
2021/07/01 08:56:40;;;;;;;5.95;4.12;;;;;;;28.37;75.23;100175.25;1742604;81;20966;-45
2021/07/01 08:59:07;;;;;;;6.80;5.05;;;;;;;28.45;76.54;100181.06;1764758;81;20987;-50
2021/07/01 09:01:40;;;;;;;9.38;4.47;;;;;;;28.70;75.74;100183.14;1764880;81;21022;-49
2021/07/01 09:04:11;;;;;;;6.60;4.12;;;;;;;28.88;74.00;100177.44;1765002;81;20955;-50
2021/07/01 09:06:38;;;;;;;6.25;4.53;;;;;;;28.99;74.38;100169.53;1764686;81;21021;-50
2021/07/01 09:09:10;;;;;;;5.87;4.25;;;;;;;29.10;72.64;100165.44;1764536;80;21248;-50
2021/07/01 09:11:39;;;;;;;7.05;4.35;;;;;;;29.13;72.99;100161.81;1737389;81;21461;-44
2021/07/01 09:14:08;;;;;;;6.53;4.37;;;;;;;29.17;72.76;100159.58;1746275;81;20999;-45
2021/07/01 09:16:36;;;;;;;4.90;3.70;;;;;;;29.41;72.04;100154.97;1764382;80;20987;-50
2021/07/01 09:19:05;;;;;;;4.22;3.67;;;;;;;29.73;70.37;100144.22;1765086;81;21058;-44
2021/07/01 09:21:31;;;;;;;8.60;4.30;;;;;;;30.08;70.09;100142.23;1764823;80;21061;-50
2021/07/01 09:24:01;;;;;;;5.12;3.98;;;;;;;30.37;68.81;100139.89;1765348;81;20990;-45
2021/07/01 09:26:27;;;;;;;5.30;3.72;;;;;;;30.42;68.33;100138.02;1764716;81;20968;-45
2021/07/01 09:28:57;;;;;;;6.37;4.33;;;;;;;30.39;67.94;100143.09;1763771;81;21042;-45
2021/07/01 09:31:25;;;;;;;9.88;4.90;;;;;;;30.38;67.40;100144.91;1765213;81;21005;-45
2021/07/01 09:33:52;;;;;;;6.87;4.60;;;;;;;30.28;67.91;100143.83;1771029;80;20974;-44
2021/07/01 09:36:20;;;;;;;5.92;4.85;;;;;;;30.04;67.46;100127.38;1787125;80;20973;-50
2021/07/01 09:38:47;;;;;;;7.22;5.30;;;;;;;29.79;68.65;100131.89;1748146;81;21082;-45
2021/07/01 09:41:14;;;;;;;7.95;5.03;;;;;;;29.55;69.30;100128.89;1773889;80;20891;-45
2021/07/01 09:43:42;;;;;;;5.87;4.12;;;;;;;29.41;70.83;100127.62;1775574;80;21535;-50
2021/07/01 09:46:12;;;;;;;7.12;4.35;;;;;;;29.40;71.58;100126.00;1776675;80;20967;-44
2021/07/01 09:48:42;;;;;;;7.28;5.28;;;;;;;29.39;72.03;100126.44;1754657;80;21002;-50
2021/07/01 09:51:09;;;;;;;8.25;5.12;;;;;;;29.35;71.44;100119.42;1776328;80;21080;-44
2021/07/01 09:53:36;;;;;;;7.50;5.12;;;;;;;29.25;71.03;100114.69;1776982;80;20925;-50
2021/07/01 09:56:04;;;;;;;7.45;4.90;;;;;;;29.14;71.62;100109.16;1755018;80;21412;-44
2021/07/01 09:58:32;;;;;;;8.45;5.05;;;;;;;29.03;71.66;100104.19;1776970;80;20994;-45
2021/07/01 10:00:58;;;;;;;7.83;5.20;;;;;;;28.83;70.18;100092.11;1775747;80;20990;-50
2021/07/01 10:03:25;;;;;;;5.37;4.35;;;;;;;28.55;71.61;100090.27;1776621;80;21026;-49
2021/07/01 10:05:51;;;;;;;5.45;4.17;;;;;;;28.35;73.46;100089.96;1780636;78;20970;-50
2021/07/01 10:08:18;;;;;;;7.92;4.90;;;;;;;28.36;74.86;100086.53;1729590;82;21020;-45
2021/07/01 10:10:50;;;;;;;6.97;4.67;;;;;;;28.49;74.58;100096.15;1733621;82;21013;-49
2021/07/01 10:13:19;;;;;;;9.40;5.35;;;;;;;28.63;74.19;100093.84;1725240;81;20967;-43
2021/07/01 10:15:46;;;;;;;7.55;5.17;;;;;;;28.77;73.74;100088.13;1733736;82;21408;-50
2021/07/01 10:18:20;;;;;;;7.58;5.45;;;;;;;28.89;72.54;100081.22;1724350;82;21019;-50
2021/07/01 10:20:50;;;;;;;7.05;5.25;;;;;;;28.89;71.17;100080.60;1716525;81;21377;-44
2021/07/01 10:23:22;;;;;;;6.22;5.15;;;;;;;28.80;72.25;100069.62;1731648;82;20988;-50
2021/07/01 10:25:51;;;;;;;7.00;4.37;;;;;;;28.76;71.35;100075.88;1711725;83;21035;-46
2021/07/01 10:28:19;;;;;;;8.65;5.17;;;;;;;28.65;71.93;100075.95;1707565;84;21018;-44
2021/07/01 10:31:12;;;;;;;10.20;5.40;;;;;;;28.57;73.18;100075.20;1724051;83;21339;-45
2021/07/01 10:33:39;;;;;;;;;;;;;;;28.60;73.10;100077.19;1726139;82;21009;-45
2021/07/01 10:36:15;;;;;;;7.33;5.40;;;;;;;28.61;71.84;100084.43;1693675;82;20460;-44
2021/07/01 10:38:48;;;;;;;9.53;6.08;;;;;;;28.62;73.08;100087.42;1682447;83;21042;-50
2021/07/01 10:41:32;;;;;;;12.45;7.08;;;;;;;28.75;72.17;100085.53;1678650;83;21039;-44
2021/07/01 10:43:59;;;;;;;9.20;6.37;;;;;;;28.83;71.74;100088.48;1672257;84;21053;-45
2021/07/01 10:46:43;;;;;;;10.53;7.05;;;;;;;28.88;71.68;100083.81;1671822;85;21106;-50
2021/07/01 10:49:11;;;;;;;13.53;7.80;;;;;;;28.91;70.99;100078.80;1672224;85;20977;-44
2021/07/01 10:51:38;;;;;;;10.23;6.72;;;;;;;28.76;69.01;100075.88;1673348;84;21414;-44
2021/07/01 10:54:13;;;;;;;10.08;6.53;;;;;;;28.52;70.66;100084.08;1678466;84;21045;-50
2021/07/01 10:56:40;;;;;;;10.93;7.08;;;;;;;28.35;71.36;100075.91;1700349;83;21019;-50
2021/07/01 10:59:08;;;;;;;8.25;5.47;;;;;;;28.21;71.56;100072.56;1700674;84;20983;-50
2021/07/01 11:01:36;;;;;;;11.88;6.78;;;;;;;28.09;72.14;100073.02;1700585;84;21047;-50
2021/07/01 11:04:16;;;;;;;10.63;6.15;;;;;;;27.90;72.00;100065.11;1700667;84;21053;-44
2021/07/01 11:07:00;;;;;;;12.68;7.40;;;;;;;27.62;72.93;100070.38;1700591;84;21425;-45
2021/07/01 11:09:43;;;;;;;15.15;6.70;;;;;;;27.42;74.24;100071.42;1699625;84;20994;-44
2021/07/01 11:12:11;;;;;;;15.28;6.37;;;;;;;27.32;74.40;100074.22;1700606;84;21035;-50
2021/07/01 11:14:39;;;;;;;10.28;6.25;;;;;;;27.19;75.60;100073.84;1700485;83;21012;-50
2021/07/01 11:17:09;;;;;;;11.15;6.40;;;;;;;27.10;75.81;100072.00;1700419;84;21038;-44
2021/07/01 11:19:46;;;;;;;10.75;6.83;;;;;;;27.03;76.09;100058.20;1700511;84;21022;-50
2021/07/01 11:22:14;;;;;;;9.53;6.22;;;;;;;27.01;77.73;100057.80;1700285;84;21022;-50
2021/07/01 11:24:43;;;;;;;13.25;7.33;;;;;;;27.21;78.75;100042.78;1700368;83;21053;-50
2021/07/01 11:27:10;;;;;;;14.83;7.95;;;;;;;27.61;76.91;100045.51;1681535;83;21346;-44
2021/07/01 11:29:43;;;;;;;12.20;6.28;;;;;;;28.05;74.41;100042.16;1670496;84;21473;-45
2021/07/01 11:32:28;;;;;;;12.98;8.13;;;;;;;28.44;73.58;100045.36;1650788;85;21046;-50
2021/07/01 11:34:55;;;;;;;10.58;6.03;;;;;;;28.85;71.98;100035.45;1672637;84;21023;-45
2021/07/01 11:37:38;;;;;;;8.50;5.00;;;;;;;29.20;70.45;100032.94;1671559;84;21015;-45
2021/07/01 11:40:22;;;;;;;9.98;5.25;;;;;;;29.55;70.84;100031.78;1671866;85;21022;-51
2021/07/01 11:42:50;;;;;;;8.13;5.72;;;;;;;30.04;70.44;100027.99;1674843;84;21003;-45
2021/07/01 11:45:17;;;;;;;11.43;6.85;;;;;;;30.41;65.34;100029.29;1677110;84;21035;-50
2021/07/01 11:47:44;;;;;;;11.15;6.67;;;;;;;30.50;63.85;100022.34;1672482;84;21026;-45
2021/07/01 11:50:11;;;;;;;12.45;6.92;;;;;;;30.51;64.52;100021.11;1700191;84;21050;-45
2021/07/01 11:52:38;;;;;;;11.85;6.53;;;;;;;30.53;63.54;100025.71;1698282;83;21426;-50
2021/07/01 11:55:06;;;;;;;9.23;5.60;;;;;;;30.54;63.21;100019.66;1708875;83;21078;-51